Airfield :
LOGIN :

Register | Disclaimer

   EN    FR    IT 

 










Legend :    VFR   Marginal VFR   IFR   Intensive IFR   Very Intensive IFR
Visi :
Ceiling :
>= 8 km
>= 3000ft
5 to 8 km
1000 to 3000 ft
1500m to 5 km
500 to 1000 ft
800 to 1500m
200 to 500 ft
< 800m
< 200 ft
Symbols :   Thunderstorms  Fog  Heavy snow  Heavy precipitations  Wind > 20 kt
SIGMETs :     Misc.  Thunderstorms  Icing  Turbulence  Mountain Waves  Volcanic Ashes







- Airport Elevation : 485 ft
- IATA code : QSA


LELL - Sabadell

CURRENT METAR :
  • 160530Z AUTO 30002KT 9999 NCD 17/12 Q1019

EXPIRED METARs :
  • 160500Z AUTO 30003KT 9999 NCD 17/12 Q1019
  • 160430Z AUTO VRB01KT 9999 NCD 17/12 Q1019
  • 160400Z AUTO 00000KT 9999 NCD 17/12 Q1019
  • 160330Z AUTO 32003KT 290V010 9999 NCD 18/12 Q1019
  • 160300Z AUTO 29005KT 9999 NCD 17/12 Q1020

TAF TAF LELL
Valid from the 16 at 03:00 until the 17 at 03:00 UTC


160200Z 1603/1703 01005KT 9999 FEW030 TX29/1612Z TN17/1606Z
BECMG 1608/1610 12008KT
BECMG 1618/1620 VRB03KT
No reported NOTAMs for that airfield.



MET'MAP, your aeronautical weather chart ! - Copyright ORBIFLY December 2007 - Disclaimer

ORBIFLY MET'MAP TEAM :

Programming & Development : Alexandra Zaïnal
Concept & Development : Baudouin d'Aumeries
Co-Development & Prog : Marc-Olivier Méhu
Technical & hardware support : Manuel Goepfert

Contact : metmap@orbifly.com




SOURCES & CREDITS :

   NOAA